sensor_id;sensor_type;location;lat;lon;timestamp;temperature;humidity
49717;DHT22;35609;53.166;7.610;2022-10-16T00:00:37;11.30;99.90
49717;DHT22;35609;53.166;7.610;2022-10-16T00:03:04;11.40;99.90
49717;DHT22;35609;53.166;7.610;2022-10-16T00:05:30;11.40;99.90
49717;DHT22;35609;53.166;7.610;2022-10-16T00:07:55;11.40;99.90
49717;DHT22;35609;53.166;7.610;2022-10-16T00:10:21;11.50;99.90
49717;DHT22;35609;53.166;7.610;2022-10-16T00:12:47;11.50;99.90
49717;DHT22;35609;53.166;7.610;2022-10-16T00:15:12;11.50;99.90
49717;DHT22;35609;53.166;7.610;2022-10-16T00:17:38;11.50;99.90
49717;DHT22;35609;53.166;7.610;2022-10-16T00:20:04;11.40;99.90
49717;DHT22;35609;53.166;7.610;2022-10-16T00:22:30;11.40;99.90
49717;DHT22;35609;53.166;7.610;2022-10-16T00:24:56;11.30;99.90
49717;DHT22;35609;53.166;7.610;2022-10-16T00:27:22;11.30;99.90
49717;DHT22;35609;53.166;7.610;2022-10-16T00:29:52;11.30;99.90
49717;DHT22;35609;53.166;7.610;2022-10-16T00:32:18;11.20;99.90
49717;DHT22;35609;53.166;7.610;2022-10-16T00:34:44;11.20;99.90
49717;DHT22;35609;53.166;7.610;2022-10-16T00:37:11;11.20;99.90
49717;DHT22;35609;53.166;7.610;2022-10-16T00:39:37;11.10;99.90
49717;DHT22;35609;53.166;7.610;2022-10-16T00:42:03;11.10;99.90
49717;DHT22;35609;53.166;7.610;2022-10-16T00:47:19;11.00;99.90
49717;DHT22;35609;53.166;7.610;2022-10-16T00:49:47;11.10;99.90
49717;DHT22;35609;53.166;7.610;2022-10-16T00:52:14;11.00;99.90
49717;DHT22;35609;53.166;7.610;2022-10-16T00:54:40;11.00;99.90
49717;DHT22;35609;53.166;7.610;2022-10-16T00:57:08;11.00;99.90
49717;DHT22;35609;53.166;7.610;2022-10-16T00:59:37;11.00;99.90
49717;DHT22;35609;53.166;7.610;2022-10-16T01:02:04;10.90;99.90
49717;DHT22;35609;53.166;7.610;2022-10-16T01:04:38;10.90;99.90
49717;DHT22;35609;53.166;7.610;2022-10-16T01:07:07;10.90;99.90
49717;DHT22;35609;53.166;7.610;2022-10-16T01:09:47;10.90;99.90
49717;DHT22;35609;53.166;7.610;2022-10-16T01:12:23;10.90;99.90
49717;DHT22;35609;53.166;7.610;2022-10-16T01:14:59;10.90;99.90
49717;DHT22;35609;53.166;7.610;2022-10-16T01:18:05;10.90;99.90
49717;DHT22;35609;53.166;7.610;2022-10-16T01:20:32;10.90;99.90
49717;DHT22;35609;53.166;7.610;2022-10-16T01:26:14;10.90;99.90
49717;DHT22;35609;53.166;7.610;2022-10-16T01:28:55;10.90;99.90
49717;DHT22;35609;53.166;7.610;2022-10-16T01:31:25;10.90;99.90
49717;DHT22;35609;53.166;7.610;2022-10-16T01:33:58;10.90;99.90
49717;DHT22;35609;53.166;7.610;2022-10-16T01:36:31;10.90;99.90
49717;DHT22;35609;53.166;7.610;2022-10-16T01:39:01;10.90;99.90
49717;DHT22;35609;53.166;7.610;2022-10-16T01:41:34;10.90;99.90
49717;DHT22;35609;53.166;7.610;2022-10-16T01:44:09;10.80;99.90
49717;DHT22;35609;53.166;7.610;2022-10-16T01:46:39;10.90;99.90
49717;DHT22;35609;53.166;7.610;2022-10-16T01:49:06;10.90;99.90
49717;DHT22;35609;53.166;7.610;2022-10-16T01:51:34;10.90;99.90
49717;DHT22;35609;53.166;7.610;2022-10-16T01:54:02;11.10;99.90
49717;DHT22;35609;53.166;7.610;2022-10-16T01:56:29;10.90;99.90
49717;DHT22;35609;53.166;7.610;2022-10-16T01:59:03;10.90;99.90
49717;DHT22;35609;53.166;7.610;2022-10-16T02:01:32;10.90;99.90
49717;DHT22;35609;53.166;7.610;2022-10-16T02:04:03;10.90;99.90
49717;DHT22;35609;53.166;7.610;2022-10-16T02:06:30;10.90;99.90
49717;DHT22;35609;53.166;7.610;2022-10-16T02:08:57;10.80;99.90
49717;DHT22;35609;53.166;7.610;2022-10-16T02:11:24;10.90;99.90
49717;DHT22;35609;53.166;7.610;2022-10-16T02:13:54;10.90;99.90
49717;DHT22;35609;53.166;7.610;2022-10-16T02:16:21;10.90;99.90
49717;DHT22;35609;53.166;7.610;2022-10-16T02:18:46;10.90;99.90
49717;DHT22;35609;53.166;7.610;2022-10-16T02:21:32;10.90;99.90
49717;DHT22;35609;53.166;7.610;2022-10-16T02:24:13;10.90;99.90
49717;DHT22;35609;53.166;7.610;2022-10-16T02:26:49;10.90;99.90
49717;DHT22;35609;53.166;7.610;2022-10-16T02:29:22;10.80;99.90
49717;DHT22;35609;53.166;7.610;2022-10-16T02:31:55;10.90;99.90
49717;DHT22;35609;53.166;7.610;2022-10-16T02:34:24;10.90;99.90
49717;DHT22;35609;53.166;7.610;2022-10-16T02:36:51;11.00;99.90
49717;DHT22;35609;53.166;7.610;2022-10-16T02:39:18;11.00;99.90
49717;DHT22;35609;53.166;7.610;2022-10-16T02:41:45;11.00;99.90
49717;DHT22;35609;53.166;7.610;2022-10-16T02:44:10;11.10;99.90
49717;DHT22;35609;53.166;7.610;2022-10-16T02:46:36;11.20;99.90
49717;DHT22;35609;53.166;7.610;2022-10-16T02:49:02;11.20;99.90
49717;DHT22;35609;53.166;7.610;2022-10-16T02:51:28;11.30;99.90
49717;DHT22;35609;53.166;7.610;2022-10-16T02:53:54;11.30;99.90
49717;DHT22;35609;53.166;7.610;2022-10-16T02:56:20;11.40;99.90
49717;DHT22;35609;53.166;7.610;2022-10-16T02:58:45;11.40;99.90
49717;DHT22;35609;53.166;7.610;2022-10-16T03:01:11;11.50;99.90
49717;DHT22;35609;53.166;7.610;2022-10-16T03:03:38;11.60;99.90
49717;DHT22;35609;53.166;7.610;2022-10-16T03:06:04;11.60;99.90
49717;DHT22;35609;53.166;7.610;2022-10-16T03:08:30;11.60;99.90
49717;DHT22;35609;53.166;7.610;2022-10-16T03:10:55;11.70;99.90
49717;DHT22;35609;53.166;7.610;2022-10-16T03:13:21;11.70;99.90
49717;DHT22;35609;53.166;7.610;2022-10-16T03:15:47;11.70;99.90
49717;DHT22;35609;53.166;7.610;2022-10-16T03:18:12;11.80;99.90
49717;DHT22;35609;53.166;7.610;2022-10-16T03:20:38;11.80;99.90
49717;DHT22;35609;53.166;7.610;2022-10-16T03:23:04;11.90;99.90
49717;DHT22;35609;53.166;7.610;2022-10-16T03:25:29;11.80;99.90
49717;DHT22;35609;53.166;7.610;2022-10-16T03:27:55;11.80;99.90
49717;DHT22;35609;53.166;7.610;2022-10-16T03:30:21;11.80;99.90
49717;DHT22;35609;53.166;7.610;2022-10-16T03:32:46;11.90;99.90
49717;DHT22;35609;53.166;7.610;2022-10-16T03:35:12;11.90;99.90
49717;DHT22;35609;53.166;7.610;2022-10-16T03:37:38;11.90;99.90
49717;DHT22;35609;53.166;7.610;2022-10-16T03:40:04;11.90;99.90
49717;DHT22;35609;53.166;7.610;2022-10-16T03:42:30;11.90;99.90
49717;DHT22;35609;53.166;7.610;2022-10-16T03:44:56;11.90;99.90
49717;DHT22;35609;53.166;7.610;2022-10-16T03:47:22;12.00;99.90
49717;DHT22;35609;53.166;7.610;2022-10-16T03:49:49;12.00;99.90
49717;DHT22;35609;53.166;7.610;2022-10-16T03:52:15;12.00;99.90
49717;DHT22;35609;53.166;7.610;2022-10-16T03:54:41;12.10;99.90
49717;DHT22;35609;53.166;7.610;2022-10-16T03:57:06;12.10;99.90
49717;DHT22;35609;53.166;7.610;2022-10-16T03:59:32;12.10;99.90
49717;DHT22;35609;53.166;7.610;2022-10-16T04:01:58;12.20;99.90
49717;DHT22;35609;53.166;7.610;2022-10-16T04:04:23;12.10;99.90
49717;DHT22;35609;53.166;7.610;2022-10-16T04:06:50;12.10;99.90
49717;DHT22;35609;53.166;7.610;2022-10-16T04:09:16;12.10;99.90
49717;DHT22;35609;53.166;7.610;2022-10-16T04:11:41;12.30;99.90
49717;DHT22;35609;53.166;7.610;2022-10-16T04:14:07;12.30;99.90
49717;DHT22;35609;53.166;7.610;2022-10-16T04:16:33;12.10;99.90
49717;DHT22;35609;53.166;7.610;2022-10-16T04:18:58;12.10;99.90
49717;DHT22;35609;53.166;7.610;2022-10-16T04:21:24;12.10;99.90
49717;DHT22;35609;53.166;7.610;2022-10-16T04:23:50;12.10;99.90
49717;DHT22;35609;53.166;7.610;2022-10-16T04:26:15;12.10;99.90
49717;DHT22;35609;53.166;7.610;2022-10-16T04:28:41;12.10;99.90
49717;DHT22;35609;53.166;7.610;2022-10-16T04:31:07;12.10;99.90
49717;DHT22;35609;53.166;7.610;2022-10-16T04:33:33;12.10;99.90
49717;DHT22;35609;53.166;7.610;2022-10-16T04:36:00;12.10;99.90
49717;DHT22;35609;53.166;7.610;2022-10-16T04:38:26;12.10;99.90
49717;DHT22;35609;53.166;7.610;2022-10-16T04:40:52;12.10;99.90
49717;DHT22;35609;53.166;7.610;2022-10-16T04:43:18;12.10;99.90
49717;DHT22;35609;53.166;7.610;2022-10-16T04:45:44;12.10;99.90
49717;DHT22;35609;53.166;7.610;2022-10-16T04:48:10;12.20;99.90
49717;DHT22;35609;53.166;7.610;2022-10-16T04:50:36;12.00;99.90
49717;DHT22;35609;53.166;7.610;2022-10-16T04:53:01;12.10;99.90
49717;DHT22;35609;53.166;7.610;2022-10-16T04:55:27;12.00;99.90
49717;DHT22;35609;53.166;7.610;2022-10-16T04:57:53;12.00;99.90
49717;DHT22;35609;53.166;7.610;2022-10-16T05:00:19;11.90;99.90
49717;DHT22;35609;53.166;7.610;2022-10-16T05:02:45;11.90;99.90
49717;DHT22;35609;53.166;7.610;2022-10-16T05:05:10;11.80;99.90
49717;DHT22;35609;53.166;7.610;2022-10-16T05:07:37;11.90;99.90
49717;DHT22;35609;53.166;7.610;2022-10-16T05:10:03;12.00;99.90
49717;DHT22;35609;53.166;7.610;2022-10-16T05:12:29;11.80;99.90
49717;DHT22;35609;53.166;7.610;2022-10-16T05:14:54;11.80;99.90
49717;DHT22;35609;53.166;7.610;2022-10-16T05:17:24;11.80;99.90
49717;DHT22;35609;53.166;7.610;2022-10-16T05:19:50;11.70;99.90
49717;DHT22;35609;53.166;7.610;2022-10-16T05:22:17;11.70;99.90
49717;DHT22;35609;53.166;7.610;2022-10-16T05:24:42;11.70;99.90
49717;DHT22;35609;53.166;7.610;2022-10-16T05:27:08;11.80;99.90
49717;DHT22;35609;53.166;7.610;2022-10-16T05:29:35;11.80;99.90
49717;DHT22;35609;53.166;7.610;2022-10-16T05:32:00;11.80;99.90
49717;DHT22;35609;53.166;7.610;2022-10-16T05:34:26;11.80;99.90
49717;DHT22;35609;53.166;7.610;2022-10-16T05:36:52;11.80;99.90
49717;DHT22;35609;53.166;7.610;2022-10-16T05:39:17;11.80;99.90
49717;DHT22;35609;53.166;7.610;2022-10-16T05:41:43;11.80;99.90
49717;DHT22;35609;53.166;7.610;2022-10-16T05:44:09;11.70;99.90
49717;DHT22;35609;53.166;7.610;2022-10-16T05:46:35;11.80;99.90
49717;DHT22;35609;53.166;7.610;2022-10-16T05:49:01;11.80;99.90
49717;DHT22;35609;53.166;7.610;2022-10-16T05:51:27;11.80;99.90
49717;DHT22;35609;53.166;7.610;2022-10-16T05:53:52;11.70;99.90
49717;DHT22;35609;53.166;7.610;2022-10-16T05:56:18;11.60;99.90
49717;DHT22;35609;53.166;7.610;2022-10-16T05:58:44;11.70;99.90
49717;DHT22;35609;53.166;7.610;2022-10-16T06:01:15;11.70;99.90
49717;DHT22;35609;53.166;7.610;2022-10-16T06:03:41;11.70;99.90
49717;DHT22;35609;53.166;7.610;2022-10-16T06:06:16;11.70;99.90
49717;DHT22;35609;53.166;7.610;2022-10-16T06:08:43;11.70;99.90
49717;DHT22;35609;53.166;7.610;2022-10-16T06:11:11;11.70;99.90
49717;DHT22;35609;53.166;7.610;2022-10-16T06:13:37;11.70;99.90
49717;DHT22;35609;53.166;7.610;2022-10-16T06:16:04;11.70;99.90
49717;DHT22;35609;53.166;7.610;2022-10-16T06:18:31;11.70;99.90
49717;DHT22;35609;53.166;7.610;2022-10-16T06:20:57;11.70;99.90
49717;DHT22;35609;53.166;7.610;2022-10-16T06:23:23;11.70;99.90
49717;DHT22;35609;53.166;7.610;2022-10-16T06:25:49;11.80;99.90
49717;DHT22;35609;53.166;7.610;2022-10-16T06:28:16;11.80;99.90
49717;DHT22;35609;53.166;7.610;2022-10-16T06:30:42;11.80;99.90
49717;DHT22;35609;53.166;7.610;2022-10-16T06:33:10;11.80;99.90
49717;DHT22;35609;53.166;7.610;2022-10-16T06:35:38;11.90;99.90
49717;DHT22;35609;53.166;7.610;2022-10-16T06:38:04;11.90;99.90
49717;DHT22;35609;53.166;7.610;2022-10-16T06:40:30;11.90;99.90
49717;DHT22;35609;53.166;7.610;2022-10-16T06:42:55;11.90;99.90
49717;DHT22;35609;53.166;7.610;2022-10-16T06:45:21;12.00;99.90
49717;DHT22;35609;53.166;7.610;2022-10-16T06:47:47;12.00;99.90
49717;DHT22;35609;53.166;7.610;2022-10-16T06:50:12;12.00;99.90
49717;DHT22;35609;53.166;7.610;2022-10-16T06:52:38;12.10;99.90
49717;DHT22;35609;53.166;7.610;2022-10-16T06:55:04;12.10;99.90
49717;DHT22;35609;53.166;7.610;2022-10-16T06:57:30;12.20;99.90
49717;DHT22;35609;53.166;7.610;2022-10-16T06:59:55;12.20;99.90
49717;DHT22;35609;53.166;7.610;2022-10-16T07:02:21;12.20;99.90
49717;DHT22;35609;53.166;7.610;2022-10-16T07:04:47;12.30;99.90
49717;DHT22;35609;53.166;7.610;2022-10-16T07:07:12;12.30;99.90
49717;DHT22;35609;53.166;7.610;2022-10-16T07:09:38;12.30;99.90
49717;DHT22;35609;53.166;7.610;2022-10-16T07:12:04;12.30;99.90
